sensor_id;sensor_type;location;lat;lon;timestamp;temperature;humidity
7028;DHT22;3555;53.248;10.336;2023-08-24T00:02:00;21.60;56.30
7028;DHT22;3555;53.248;10.336;2023-08-24T00:04:27;21.60;1.00
7028;DHT22;3555;53.248;10.336;2023-08-24T00:06:54;21.60;99.90
7028;DHT22;3555;53.248;10.336;2023-08-24T00:09:22;21.50;1.00
7028;DHT22;3555;53.248;10.336;2023-08-24T00:11:48;21.50;99.90
7028;DHT22;3555;53.248;10.336;2023-08-24T00:14:15;21.50;99.90
7028;DHT22;3555;53.248;10.336;2023-08-24T00:16:42;21.50;1.00
7028;DHT22;3555;53.248;10.336;2023-08-24T00:19:11;21.50;99.90
7028;DHT22;3555;53.248;10.336;2023-08-24T00:21:37;21.50;99.90
7028;DHT22;3555;53.248;10.336;2023-08-24T00:24:04;21.50;1.00
7028;DHT22;3555;53.248;10.336;2023-08-24T00:26:31;21.50;1.00
7028;DHT22;3555;53.248;10.336;2023-08-24T00:28:58;21.50;1.00
7028;DHT22;3555;53.248;10.336;2023-08-24T00:31:26;21.50;1.00
7028;DHT22;3555;53.248;10.336;2023-08-24T00:33:52;21.60;99.90
7028;DHT22;3555;53.248;10.336;2023-08-24T00:36:21;21.60;99.90
7028;DHT22;3555;53.248;10.336;2023-08-24T00:38:48;21.50;1.00
7028;DHT22;3555;53.248;10.336;2023-08-24T00:41:17;21.50;1.00
7028;DHT22;3555;53.248;10.336;2023-08-24T00:43:44;21.50;1.00
7028;DHT22;3555;53.248;10.336;2023-08-24T00:46:12;21.50;1.00
7028;DHT22;3555;53.248;10.336;2023-08-24T00:48:39;21.50;1.00
7028;DHT22;3555;53.248;10.336;2023-08-24T00:51:06;21.50;99.90
7028;DHT22;3555;53.248;10.336;2023-08-24T00:53:35;21.40;99.90
7028;DHT22;3555;53.248;10.336;2023-08-24T00:56:03;21.40;99.90
7028;DHT22;3555;53.248;10.336;2023-08-24T00:58:32;21.40;99.90
7028;DHT22;3555;53.248;10.336;2023-08-24T01:00:59;21.40;99.90
7028;DHT22;3555;53.248;10.336;2023-08-24T01:03:26;21.40;99.90
7028;DHT22;3555;53.248;10.336;2023-08-24T01:05:53;21.40;1.00
7028;DHT22;3555;53.248;10.336;2023-08-24T01:08:20;21.40;1.00
7028;DHT22;3555;53.248;10.336;2023-08-24T01:10:57;21.40;1.00
7028;DHT22;3555;53.248;10.336;2023-08-24T01:13:32;21.30;1.00
7028;DHT22;3555;53.248;10.336;2023-08-24T01:16:06;21.30;1.00
7028;DHT22;3555;53.248;10.336;2023-08-24T01:18:35;21.40;1.00
7028;DHT22;3555;53.248;10.336;2023-08-24T01:21:04;21.30;1.00
7028;DHT22;3555;53.248;10.336;2023-08-24T01:23:41;21.30;1.00
7028;DHT22;3555;53.248;10.336;2023-08-24T01:26:12;21.30;1.00
7028;DHT22;3555;53.248;10.336;2023-08-24T01:28:40;21.30;1.00
7028;DHT22;3555;53.248;10.336;2023-08-24T01:31:08;21.30;1.00
7028;DHT22;3555;53.248;10.336;2023-08-24T01:33:35;21.20;1.00
7028;DHT22;3555;53.248;10.336;2023-08-24T01:36:02;21.30;1.00
7028;DHT22;3555;53.248;10.336;2023-08-24T01:38:30;21.20;1.00
7028;DHT22;3555;53.248;10.336;2023-08-24T01:41:06;21.20;1.00
7028;DHT22;3555;53.248;10.336;2023-08-24T01:43:39;21.10;1.00
7028;DHT22;3555;53.248;10.336;2023-08-24T01:46:07;21.00;99.90
7028;DHT22;3555;53.248;10.336;2023-08-24T01:48:35;20.60;99.90
7028;DHT22;3555;53.248;10.336;2023-08-24T01:51:03;20.90;30.30
7028;DHT22;3555;53.248;10.336;2023-08-24T01:53:31;20.90;58.90
7028;DHT22;3555;53.248;10.336;2023-08-24T01:55:59;20.80;99.90
7028;DHT22;3555;53.248;10.336;2023-08-24T01:58:25;20.80;91.60
7028;DHT22;3555;53.248;10.336;2023-08-24T02:00:54;20.80;45.20
7028;DHT22;3555;53.248;10.336;2023-08-24T02:03:20;20.70;1.00
7028;DHT22;3555;53.248;10.336;2023-08-24T02:05:48;20.70;96.90
7028;DHT22;3555;53.248;10.336;2023-08-24T02:08:14;20.70;1.00
7028;DHT22;3555;53.248;10.336;2023-08-24T02:10:41;20.60;1.00
7028;DHT22;3555;53.248;10.336;2023-08-24T02:13:08;20.60;99.90
7028;DHT22;3555;53.248;10.336;2023-08-24T02:15:36;20.60;1.00
7028;DHT22;3555;53.248;10.336;2023-08-24T02:18:05;20.50;99.90
7028;DHT22;3555;53.248;10.336;2023-08-24T02:20:35;20.40;1.00
7028;DHT22;3555;53.248;10.336;2023-08-24T02:23:02;20.40;1.00
7028;DHT22;3555;53.248;10.336;2023-08-24T02:25:29;20.40;99.90
7028;DHT22;3555;53.248;10.336;2023-08-24T02:27:56;20.40;1.00
7028;DHT22;3555;53.248;10.336;2023-08-24T02:30:23;20.40;1.00
7028;DHT22;3555;53.248;10.336;2023-08-24T02:32:50;20.40;99.90
7028;DHT22;3555;53.248;10.336;2023-08-24T02:35:18;20.30;1.00
7028;DHT22;3555;53.248;10.336;2023-08-24T02:37:45;20.20;1.00
7028;DHT22;3555;53.248;10.336;2023-08-24T02:40:12;20.20;99.90
7028;DHT22;3555;53.248;10.336;2023-08-24T02:42:39;20.20;99.90
7028;DHT22;3555;53.248;10.336;2023-08-24T02:45:06;20.10;99.90
7028;DHT22;3555;53.248;10.336;2023-08-24T02:47:33;20.10;1.00
7028;DHT22;3555;53.248;10.336;2023-08-24T02:50:02;20.00;1.00
7028;DHT22;3555;53.248;10.336;2023-08-24T02:52:31;20.00;1.00
7028;DHT22;3555;53.248;10.336;2023-08-24T02:54:58;20.00;99.90
7028;DHT22;3555;53.248;10.336;2023-08-24T02:57:25;19.80;1.00
7028;DHT22;3555;53.248;10.336;2023-08-24T02:59:52;19.80;1.00
7028;DHT22;3555;53.248;10.336;2023-08-24T03:02:19;19.80;1.00
7028;DHT22;3555;53.248;10.336;2023-08-24T03:04:45;19.70;1.00
7028;DHT22;3555;53.248;10.336;2023-08-24T03:07:12;19.60;1.00
7028;DHT22;3555;53.248;10.336;2023-08-24T03:09:41;19.70;1.00
7028;DHT22;3555;53.248;10.336;2023-08-24T03:12:08;19.70;1.00
7028;DHT22;3555;53.248;10.336;2023-08-24T03:14:35;19.70;99.90
7028;DHT22;3555;53.248;10.336;2023-08-24T03:17:02;19.70;1.00
7028;DHT22;3555;53.248;10.336;2023-08-24T03:19:30;19.70;1.00
7028;DHT22;3555;53.248;10.336;2023-08-24T03:21:57;19.60;1.00
7028;DHT22;3555;53.248;10.336;2023-08-24T03:24:24;19.60;1.00
7028;DHT22;3555;53.248;10.336;2023-08-24T03:26:52;19.50;1.00
7028;DHT22;3555;53.248;10.336;2023-08-24T03:29:19;19.40;1.00
7028;DHT22;3555;53.248;10.336;2023-08-24T03:31:45;19.40;99.90
7028;DHT22;3555;53.248;10.336;2023-08-24T03:34:12;19.30;1.00
7028;DHT22;3555;53.248;10.336;2023-08-24T03:36:39;19.20;1.00
7028;DHT22;3555;53.248;10.336;2023-08-24T03:39:06;19.20;99.90
7028;DHT22;3555;53.248;10.336;2023-08-24T03:41:33;19.10;1.00
7028;DHT22;3555;53.248;10.336;2023-08-24T03:44:02;19.00;1.00
7028;DHT22;3555;53.248;10.336;2023-08-24T03:46:28;19.10;1.00
7028;DHT22;3555;53.248;10.336;2023-08-24T03:48:55;19.20;1.00
7028;DHT22;3555;53.248;10.336;2023-08-24T03:51:22;19.20;1.00
7028;DHT22;3555;53.248;10.336;2023-08-24T03:53:49;19.30;99.90
7028;DHT22;3555;53.248;10.336;2023-08-24T03:56:16;19.30;1.00
7028;DHT22;3555;53.248;10.336;2023-08-24T03:58:43;19.30;1.00
7028;DHT22;3555;53.248;10.336;2023-08-24T04:01:11;19.30;1.00
7028;DHT22;3555;53.248;10.336;2023-08-24T04:03:38;19.30;1.00
7028;DHT22;3555;53.248;10.336;2023-08-24T04:06:05;19.20;99.90
7028;DHT22;3555;53.248;10.336;2023-08-24T04:08:33;19.20;1.00
7028;DHT22;3555;53.248;10.336;2023-08-24T04:11:00;19.00;12.10
7028;DHT22;3555;53.248;10.336;2023-08-24T04:13:26;19.00;1.00
7028;DHT22;3555;53.248;10.336;2023-08-24T04:15:53;19.00;1.00
7028;DHT22;3555;53.248;10.336;2023-08-24T04:18:22;19.00;1.00
7028;DHT22;3555;53.248;10.336;2023-08-24T04:20:51;18.90;99.90
7028;DHT22;3555;53.248;10.336;2023-08-24T04:23:23;19.00;99.90
7028;DHT22;3555;53.248;10.336;2023-08-24T04:25:52;19.00;99.90
7028;DHT22;3555;53.248;10.336;2023-08-24T04:28:19;19.00;99.90
7028;DHT22;3555;53.248;10.336;2023-08-24T04:30:50;19.00;99.90
7028;DHT22;3555;53.248;10.336;2023-08-24T04:33:17;19.00;1.00
7028;DHT22;3555;53.248;10.336;2023-08-24T04:35:47;18.90;1.00
7028;DHT22;3555;53.248;10.336;2023-08-24T04:38:14;18.90;1.00
7028;DHT22;3555;53.248;10.336;2023-08-24T04:40:52;18.80;1.00
7028;DHT22;3555;53.248;10.336;2023-08-24T04:43:20;18.80;21.90
7028;DHT22;3555;53.248;10.336;2023-08-24T04:45:48;18.90;1.00
7028;DHT22;3555;53.248;10.336;2023-08-24T04:48:15;18.90;95.40
7028;DHT22;3555;53.248;10.336;2023-08-24T04:50:43;19.00;8.10
7028;DHT22;3555;53.248;10.336;2023-08-24T04:53:12;19.00;1.00
7028;DHT22;3555;53.248;10.336;2023-08-24T04:55:39;19.00;1.00
7028;DHT22;3555;53.248;10.336;2023-08-24T04:58:07;18.90;1.00
7028;DHT22;3555;53.248;10.336;2023-08-24T05:00:34;18.80;99.90
7028;DHT22;3555;53.248;10.336;2023-08-24T05:03:01;18.80;99.90
7028;DHT22;3555;53.248;10.336;2023-08-24T05:05:28;18.80;99.90
7028;DHT22;3555;53.248;10.336;2023-08-24T05:07:55;18.90;99.90
7028;DHT22;3555;53.248;10.336;2023-08-24T05:10:24;18.90;99.90
7028;DHT22;3555;53.248;10.336;2023-08-24T05:12:51;18.90;99.90
7028;DHT22;3555;53.248;10.336;2023-08-24T05:15:18;19.00;99.90
7028;DHT22;3555;53.248;10.336;2023-08-24T05:17:45;19.00;1.00
7028;DHT22;3555;53.248;10.336;2023-08-24T05:20:12;19.00;1.00
7028;DHT22;3555;53.248;10.336;2023-08-24T05:22:39;19.00;1.00
7028;DHT22;3555;53.248;10.336;2023-08-24T05:25:06;19.00;99.90
7028;DHT22;3555;53.248;10.336;2023-08-24T05:27:35;19.10;83.00
7028;DHT22;3555;53.248;10.336;2023-08-24T05:30:02;19.10;21.90
7028;DHT22;3555;53.248;10.336;2023-08-24T05:32:31;19.10;99.90
7028;DHT22;3555;53.248;10.336;2023-08-24T05:34:58;19.10;99.90
7028;DHT22;3555;53.248;10.336;2023-08-24T05:37:24;19.20;99.90
7028;DHT22;3555;53.248;10.336;2023-08-24T05:39:51;19.30;99.90
7028;DHT22;3555;53.248;10.336;2023-08-24T05:42:18;19.40;99.90
7028;DHT22;3555;53.248;10.336;2023-08-24T05:44:46;19.50;99.90
7028;DHT22;3555;53.248;10.336;2023-08-24T05:47:13;19.40;99.90
7028;DHT22;3555;53.248;10.336;2023-08-24T05:49:40;19.50;99.90
7028;DHT22;3555;53.248;10.336;2023-08-24T05:52:07;19.50;99.90
7028;DHT22;3555;53.248;10.336;2023-08-24T05:54:36;19.60;1.00
7028;DHT22;3555;53.248;10.336;2023-08-24T05:57:03;19.70;1.00
7028;DHT22;3555;53.248;10.336;2023-08-24T05:59:30;19.70;1.00
7028;DHT22;3555;53.248;10.336;2023-08-24T06:01:58;19.70;1.00
7028;DHT22;3555;53.248;10.336;2023-08-24T06:04:25;19.80;1.00
7028;DHT22;3555;53.248;10.336;2023-08-24T06:06:52;19.80;1.00
7028;DHT22;3555;53.248;10.336;2023-08-24T06:09:19;19.80;1.00
7028;DHT22;3555;53.248;10.336;2023-08-24T06:11:46;19.90;1.00
7028;DHT22;3555;53.248;10.336;2023-08-24T06:14:13;20.00;1.00
7028;DHT22;3555;53.248;10.336;2023-08-24T06:16:40;20.10;99.90
7028;DHT22;3555;53.248;10.336;2023-08-24T06:19:09;20.30;99.90
7028;DHT22;3555;53.248;10.336;2023-08-24T06:21:36;20.50;99.90
7028;DHT22;3555;53.248;10.336;2023-08-24T06:24:03;20.80;1.00
7028;DHT22;3555;53.248;10.336;2023-08-24T06:26:30;21.10;99.90
7028;DHT22;3555;53.248;10.336;2023-08-24T06:28:57;21.50;1.00
7028;DHT22;3555;53.248;10.336;2023-08-24T06:31:23;21.90;99.90
7028;DHT22;3555;53.248;10.336;2023-08-24T06:33:50;22.10;1.00
7028;DHT22;3555;53.248;10.336;2023-08-24T06:36:19;22.40;99.90
7028;DHT22;3555;53.248;10.336;2023-08-24T06:38:46;22.70;41.10
7028;DHT22;3555;53.248;10.336;2023-08-24T06:41:13;23.00;1.00
7028;DHT22;3555;53.248;10.336;2023-08-24T06:43:40;23.20;99.90
7028;DHT22;3555;53.248;10.336;2023-08-24T06:46:07;23.30;1.00
7028;DHT22;3555;53.248;10.336;2023-08-24T06:48:34;23.50;1.00
7028;DHT22;3555;53.248;10.336;2023-08-24T06:51:01;23.70;99.90
7028;DHT22;3555;53.248;10.336;2023-08-24T06:53:29;23.90;99.90
7028;DHT22;3555;53.248;10.336;2023-08-24T06:55:57;24.10;41.20
7028;DHT22;3555;53.248;10.336;2023-08-24T06:58:24;24.30;99.90
7028;DHT22;3555;53.248;10.336;2023-08-24T07:00:51;24.50;1.00
7028;DHT22;3555;53.248;10.336;2023-08-24T07:03:18;24.70;1.00
7028;DHT22;3555;53.248;10.336;2023-08-24T07:05:45;24.80;1.00
7028;DHT22;3555;53.248;10.336;2023-08-24T07:08:12;24.90;1.00
7028;DHT22;3555;53.248;10.336;2023-08-24T07:10:42;25.00;1.00
7028;DHT22;3555;53.248;10.336;2023-08-24T07:13:09;25.10;1.00
7028;DHT22;3555;53.248;10.336;2023-08-24T07:15:36;25.10;1.00
7028;DHT22;3555;53.248;10.336;2023-08-24T07:18:03;25.00;1.00
7028;DHT22;3555;53.248;10.336;2023-08-24T07:20:32;24.90;1.00
7028;DHT22;3555;53.248;10.336;2023-08-24T07:22:59;24.70;1.00
7028;DHT22;3555;53.248;10.336;2023-08-24T07:25:27;24.60;1.00
7028;DHT22;3555;53.248;10.336;2023-08-24T07:27:56;24.90;1.00
7028;DHT22;3555;53.248;10.336;2023-08-24T07:30:24;25.10;1.00
7028;DHT22;3555;53.248;10.336;2023-08-24T07:32:51;25.10;1.00
7028;DHT22;3555;53.248;10.336;2023-08-24T07:35:18;25.40;1.00
7028;DHT22;3555;53.248;10.336;2023-08-24T07:37:46;25.50;1.00
7028;DHT22;3555;53.248;10.336;2023-08-24T07:40:13;25.70;99.90
7028;DHT22;3555;53.248;10.336;2023-08-24T07:42:44;26.00;99.90
7028;DHT22;3555;53.248;10.336;2023-08-24T07:45:14;26.30;99.90
7028;DHT22;3555;53.248;10.336;2023-08-24T07:47:41;26.40;99.90
7028;DHT22;3555;53.248;10.336;2023-08-24T07:50:08;26.60;99.90
7028;DHT22;3555;53.248;10.336;2023-08-24T07:52:36;26.70;99.90
7028;DHT22;3555;53.248;10.336;2023-08-24T07:55:03;26.70;99.90
7028;DHT22;3555;53.248;10.336;2023-08-24T07:57:32;26.80;99.90
7028;DHT22;3555;53.248;10.336;2023-08-24T07:59:59;27.00;99.90
7028;DHT22;3555;53.248;10.336;2023-08-24T08:02:27;27.20;99.90
7028;DHT22;3555;53.248;10.336;2023-08-24T08:04:56;27.20;99.90
7028;DHT22;3555;53.248;10.336;2023-08-24T08:07:24;27.00;99.90
7028;DHT22;3555;53.248;10.336;2023-08-24T08:09:51;27.30;99.90
7028;DHT22;3555;53.248;10.336;2023-08-24T08:12:18;27.50;99.90
7028;DHT22;3555;53.248;10.336;2023-08-24T08:14:45;27.70;99.90
7028;DHT22;3555;53.248;10.336;2023-08-24T08:17:12;27.90;99.90
7028;DHT22;3555;53.248;10.336;2023-08-24T08:19:40;28.10;35.90
7028;DHT22;3555;53.248;10.336;2023-08-24T08:22:07;28.20;11.00
7028;DHT22;3555;53.248;10.336;2023-08-24T08:24:34;28.10;16.20
7028;DHT22;3555;53.248;10.336;2023-08-24T08:27:00;28.30;1.00
7028;DHT22;3555;53.248;10.336;2023-08-24T08:29:28;28.40;1.60
7028;DHT22;3555;53.248;10.336;2023-08-24T08:31:55;28.70;1.00
7028;DHT22;3555;53.248;10.336;2023-08-24T08:34:22;28.80;1.00
7028;DHT22;3555;53.248;10.336;2023-08-24T08:36:50;29.10;1.00
7028;DHT22;3555;53.248;10.336;2023-08-24T08:39:17;29.20;1.00
7028;DHT22;3555;53.248;10.336;2023-08-24T08:41:44;29.00;1.00
7028;DHT22;3555;53.248;10.336;2023-08-24T08:44:13;28.70;1.00
7028;DHT22;3555;53.248;10.336;2023-08-24T08:46:41;28.90;1.00
7028;DHT22;3555;53.248;10.336;2023-08-24T08:49:09;28.60;1.00
7028;DHT22;3555;53.248;10.336;2023-08-24T08:51:36;28.60;1.00
7028;DHT22;3555;53.248;10.336;2023-08-24T08:54:05;28.60;1.00
7028;DHT22;3555;53.248;10.336;2023-08-24T08:56:32;28.80;1.00
7028;DHT22;3555;53.248;10.336;2023-08-24T08:59:00;28.90;1.00
7028;DHT22;3555;53.248;10.336;2023-08-24T09:01:28;29.00;1.00
7028;DHT22;3555;53.248;10.336;2023-08-24T09:03:57;28.80;1.00
7028;DHT22;3555;53.248;10.336;2023-08-24T09:06:24;28.40;1.00
7028;DHT22;3555;53.248;10.336;2023-08-24T09:08:52;28.00;1.00
7028;DHT22;3555;53.248;10.336;2023-08-24T09:11:21;27.70;1.00
7028;DHT22;3555;53.248;10.336;2023-08-24T09:13:49;27.70;1.00
7028;DHT22;3555;53.248;10.336;2023-08-24T09:16:16;27.30;1.00
7028;DHT22;3555;53.248;10.336;2023-08-24T09:18:45;27.20;1.00
7028;DHT22;3555;53.248;10.336;2023-08-24T09:21:14;27.60;24.90
7028;DHT22;3555;53.248;10.336;2023-08-24T09:23:44;27.90;1.00
7028;DHT22;3555;53.248;10.336;2023-08-24T09:26:11;28.10;1.00
7028;DHT22;3555;53.248;10.336;2023-08-24T09:28:42;28.20;1.00
7028;DHT22;3555;53.248;10.336;2023-08-24T09:31:11;28.20;1.00
7028;DHT22;3555;53.248;10.336;2023-08-24T09:33:38;28.10;1.00
7028;DHT22;3555;53.248;10.336;2023-08-24T09:36:06;27.60;1.00
7028;DHT22;3555;53.248;10.336;2023-08-24T09:38:33;27.30;1.00
7028;DHT22;3555;53.248;10.336;2023-08-24T09:41:02;27.60;3.60
7028;DHT22;3555;53.248;10.336;2023-08-24T09:43:30;28.00;1.00
7028;DHT22;3555;53.248;10.336;2023-08-24T09:45:59;28.10;1.00
7028;DHT22;3555;53.248;10.336;2023-08-24T09:48:25;28.60;1.00
7028;DHT22;3555;53.248;10.336;2023-08-24T09:50:52;28.60;1.00
7028;DHT22;3555;53.248;10.336;2023-08-24T09:53:20;29.00;1.00
7028;DHT22;3555;53.248;10.336;2023-08-24T09:55:53;28.80;1.00
7028;DHT22;3555;53.248;10.336;2023-08-24T09:58:21;28.70;1.00
7028;DHT22;3555;53.248;10.336;2023-08-24T10:00:49;28.90;1.00
7028;DHT22;3555;53.248;10.336;2023-08-24T10:03:18;28.90;1.00
7028;DHT22;3555;53.248;10.336;2023-08-24T10:05:49;28.80;1.00
7028;DHT22;3555;53.248;10.336;2023-08-24T10:08:21;28.50;1.00
7028;DHT22;3555;53.248;10.336;2023-08-24T10:10:51;28.50;1.00
7028;DHT22;3555;53.248;10.336;2023-08-24T10:13:23;28.80;1.00
7028;DHT22;3555;53.248;10.336;2023-08-24T10:15:53;29.20;1.00
7028;DHT22;3555;53.248;10.336;2023-08-24T10:18:23;29.50;1.00
7028;DHT22;3555;53.248;10.336;2023-08-24T10:20:52;29.70;1.00
7028;DHT22;3555;53.248;10.336;2023-08-24T10:23:19;29.80;1.00
7028;DHT22;3555;53.248;10.336;2023-08-24T10:25:47;29.90;1.00
7028;DHT22;3555;53.248;10.336;2023-08-24T10:28:16;30.00;1.00
7028;DHT22;3555;53.248;10.336;2023-08-24T10:30:45;29.90;1.00
7028;DHT22;3555;53.248;10.336;2023-08-24T10:33:13;29.70;1.00
7028;DHT22;3555;53.248;10.336;2023-08-24T10:35:42;29.00;1.00
7028;DHT22;3555;53.248;10.336;2023-08-24T10:38:23;28.80;1.00
7028;DHT22;3555;53.248;10.336;2023-08-24T10:40:51;28.50;1.00
7028;DHT22;3555;53.248;10.336;2023-08-24T10:43:18;28.30;1.00
7028;DHT22;3555;53.248;10.336;2023-08-24T10:45:54;28.10;1.00
7028;DHT22;3555;53.248;10.336;2023-08-24T10:48:22;28.20;1.00
7028;DHT22;3555;53.248;10.336;2023-08-24T10:51:20;28.30;1.00
7028;DHT22;3555;53.248;10.336;2023-08-24T10:53:52;28.70;1.00
7028;DHT22;3555;53.248;10.336;2023-08-24T10:56:19;29.00;1.00
7028;DHT22;3555;53.248;10.336;2023-08-24T10:58:47;29.50;1.00
7028;DHT22;3555;53.248;10.336;2023-08-24T11:01:34;30.00;1.00
7028;DHT22;3555;53.248;10.336;2023-08-24T11:04:05;30.40;1.00
7028;DHT22;3555;53.248;10.336;2023-08-24T11:06:34;30.90;1.00
7028;DHT22;3555;53.248;10.336;2023-08-24T11:09:08;31.00;1.00
7028;DHT22;3555;53.248;10.336;2023-08-24T11:11:39;30.50;1.00
7028;DHT22;3555;53.248;10.336;2023-08-24T11:14:15;29.80;1.00
7028;DHT22;3555;53.248;10.336;2023-08-24T11:16:46;29.30;1.00
7028;DHT22;3555;53.248;10.336;2023-08-24T11:19:13;29.70;1.00
7028;DHT22;3555;53.248;10.336;2023-08-24T11:21:43;30.00;1.00
7028;DHT22;3555;53.248;10.336;2023-08-24T11:24:13;30.30;1.00
7028;DHT22;3555;53.248;10.336;2023-08-24T11:26:41;29.70;1.00
7028;DHT22;3555;53.248;10.336;2023-08-24T11:29:08;29.10;1.00
7028;DHT22;3555;53.248;10.336;2023-08-24T11:31:36;29.70;1.00
7028;DHT22;3555;53.248;10.336;2023-08-24T11:34:03;29.30;1.00
7028;DHT22;3555;53.248;10.336;2023-08-24T11:36:31;29.20;1.00
7028;DHT22;3555;53.248;10.336;2023-08-24T11:38:59;29.60;1.00
7028;DHT22;3555;53.248;10.336;2023-08-24T11:41:26;30.10;1.00
7028;DHT22;3555;53.248;10.336;2023-08-24T11:44:00;30.70;1.00
7028;DHT22;3555;53.248;10.336;2023-08-24T11:46:29;31.00;1.00
7028;DHT22;3555;53.248;10.336;2023-08-24T11:48:57;30.60;1.00
7028;DHT22;3555;53.248;10.336;2023-08-24T11:51:24;30.70;1.00
7028;DHT22;3555;53.248;10.336;2023-08-24T11:53:51;30.70;1.00
7028;DHT22;3555;53.248;10.336;2023-08-24T11:56:20;30.60;1.00
7028;DHT22;3555;53.248;10.336;2023-08-24T11:58:49;30.70;1.00
7028;DHT22;3555;53.248;10.336;2023-08-24T12:01:17;30.90;1.00
7028;DHT22;3555;53.248;10.336;2023-08-24T12:03:44;30.40;1.00
7028;DHT22;3555;53.248;10.336;2023-08-24T12:06:12;29.80;1.00
7028;DHT22;3555;53.248;10.336;2023-08-24T12:08:39;29.70;1.00
7028;DHT22;3555;53.248;10.336;2023-08-24T12:11:13;29.10;1.00
7028;DHT22;3555;53.248;10.336;2023-08-24T12:13:46;29.50;1.00
7028;DHT22;3555;53.248;10.336;2023-08-24T12:16:14;29.40;1.00
7028;DHT22;3555;53.248;10.336;2023-08-24T12:18:50;29.50;1.00
7028;DHT22;3555;53.248;10.336;2023-08-24T12:21:18;29.20;1.00
7028;DHT22;3555;53.248;10.336;2023-08-24T12:23:55;29.10;1.00
7028;DHT22;3555;53.248;10.336;2023-08-24T12:26:22;29.30;1.00
7028;DHT22;3555;53.248;10.336;2023-08-24T12:28:51;29.30;1.00
7028;DHT22;3555;53.248;10.336;2023-08-24T12:31:18;29.80;1.00
7028;DHT22;3555;53.248;10.336;2023-08-24T12:33:56;30.30;1.00
7028;DHT22;3555;53.248;10.336;2023-08-24T12:36:23;30.50;1.00
7028;DHT22;3555;53.248;10.336;2023-08-24T12:38:50;30.40;1.00
7028;DHT22;3555;53.248;10.336;2023-08-24T12:41:17;30.20;1.00
7028;DHT22;3555;53.248;10.336;2023-08-24T12:43:44;29.90;1.00
7028;DHT22;3555;53.248;10.336;2023-08-24T12:46:12;30.20;1.00
7028;DHT22;3555;53.248;10.336;2023-08-24T12:48:39;30.00;1.00
7028;DHT22;3555;53.248;10.336;2023-08-24T12:51:06;29.80;1.00
7028;DHT22;3555;53.248;10.336;2023-08-24T12:53:33;29.70;1.00
7028;DHT22;3555;53.248;10.336;2023-08-24T12:56:00;29.30;1.00
7028;DHT22;3555;53.248;10.336;2023-08-24T12:58:27;29.90;1.00
7028;DHT22;3555;53.248;10.336;2023-08-24T13:00:54;30.10;1.00
7028;DHT22;3555;53.248;10.336;2023-08-24T13:03:22;30.60;1.00
7028;DHT22;3555;53.248;10.336;2023-08-24T13:05:49;31.00;1.00
7028;DHT22;3555;53.248;10.336;2023-08-24T13:08:16;31.40;1.00
7028;DHT22;3555;53.248;10.336;2023-08-24T13:10:43;31.40;1.00
7028;DHT22;3555;53.248;10.336;2023-08-24T13:13:09;31.40;1.00
7028;DHT22;3555;53.248;10.336;2023-08-24T13:15:36;31.10;1.00
7028;DHT22;3555;53.248;10.336;2023-08-24T13:18:03;30.40;1.00
7028;DHT22;3555;53.248;10.336;2023-08-24T13:20:32;30.20;1.00
7028;DHT22;3555;53.248;10.336;2023-08-24T13:22:59;30.00;1.00
7028;DHT22;3555;53.248;10.336;2023-08-24T13:25:25;29.90;1.00
7028;DHT22;3555;53.248;10.336;2023-08-24T13:27:52;29.70;1.00
7028;DHT22;3555;53.248;10.336;2023-08-24T13:30:21;29.60;1.00
7028;DHT22;3555;53.248;10.336;2023-08-24T13:32:48;29.10;1.00
7028;DHT22;3555;53.248;10.336;2023-08-24T13:35:15;28.90;1.00
7028;DHT22;3555;53.248;10.336;2023-08-24T13:37:44;28.70;1.00
7028;DHT22;3555;53.248;10.336;2023-08-24T13:40:11;28.30;1.00
7028;DHT22;3555;53.248;10.336;2023-08-24T13:42:38;28.40;1.00
7028;DHT22;3555;53.248;10.336;2023-08-24T13:45:06;28.30;1.00
7028;DHT22;3555;53.248;10.336;2023-08-24T13:47:33;28.30;1.00
7028;DHT22;3555;53.248;10.336;2023-08-24T13:50:00;28.60;1.00
7028;DHT22;3555;53.248;10.336;2023-08-24T13:52:28;28.60;1.00
7028;DHT22;3555;53.248;10.336;2023-08-24T13:54:56;28.00;1.00
7028;DHT22;3555;53.248;10.336;2023-08-24T13:57:24;28.00;1.00
7028;DHT22;3555;53.248;10.336;2023-08-24T13:59:51;28.20;1.00
7028;DHT22;3555;53.248;10.336;2023-08-24T14:02:18;28.30;1.00
7028;DHT22;3555;53.248;10.336;2023-08-24T14:04:45;28.00;1.00
7028;DHT22;3555;53.248;10.336;2023-08-24T14:07:12;28.10;1.00
7028;DHT22;3555;53.248;10.336;2023-08-24T14:09:38;28.30;1.00
7028;DHT22;3555;53.248;10.336;2023-08-24T14:12:07;28.30;1.00
7028;DHT22;3555;53.248;10.336;2023-08-24T14:14:34;28.50;1.00
7028;DHT22;3555;53.248;10.336;2023-08-24T14:17:01;28.60;1.00
7028;DHT22;3555;53.248;10.336;2023-08-24T14:19:27;28.50;1.00
7028;DHT22;3555;53.248;10.336;2023-08-24T14:21:54;28.60;1.00
7028;DHT22;3555;53.248;10.336;2023-08-24T14:24:21;28.70;1.00
7028;DHT22;3555;53.248;10.336;2023-08-24T14:26:48;28.40;1.00
7028;DHT22;3555;53.248;10.336;2023-08-24T14:29:16;28.60;1.00
7028;DHT22;3555;53.248;10.336;2023-08-24T14:31:43;28.40;1.00
7028;DHT22;3555;53.248;10.336;2023-08-24T14:34:10;28.20;1.00
7028;DHT22;3555;53.248;10.336;2023-08-24T14:36:37;28.30;1.00
7028;DHT22;3555;53.248;10.336;2023-08-24T14:39:04;28.40;1.00
7028;DHT22;3555;53.248;10.336;2023-08-24T14:41:31;28.50;1.00
7028;DHT22;3555;53.248;10.336;2023-08-24T14:43:58;28.60;1.00
7028;DHT22;3555;53.248;10.336;2023-08-24T14:46:26;28.60;1.00
7028;DHT22;3555;53.248;10.336;2023-08-24T14:48:53;28.30;1.00
7028;DHT22;3555;53.248;10.336;2023-08-24T14:51:20;28.40;1.00
7028;DHT22;3555;53.248;10.336;2023-08-24T14:53:47;28.30;1.00
7028;DHT22;3555;53.248;10.336;2023-08-24T14:56:13;28.20;1.00
7028;DHT22;3555;53.248;10.336;2023-08-24T14:58:40;28.10;1.00
7028;DHT22;3555;53.248;10.336;2023-08-24T15:01:07;28.10;1.00
7028;DHT22;3555;53.248;10.336;2023-08-24T15:03:36;28.20;1.00
7028;DHT22;3555;53.248;10.336;2023-08-24T15:06:04;28.30;1.00
7028;DHT22;3555;53.248;10.336;2023-08-24T15:08:32;28.20;1.00
7028;DHT22;3555;53.248;10.336;2023-08-24T15:11:00;28.20;1.00
7028;DHT22;3555;53.248;10.336;2023-08-24T15:13:28;28.20;1.00
7028;DHT22;3555;53.248;10.336;2023-08-24T15:15:57;28.40;1.00
7028;DHT22;3555;53.248;10.336;2023-08-24T15:18:26;28.40;1.00
7028;DHT22;3555;53.248;10.336;2023-08-24T15:20:54;28.40;1.00
7028;DHT22;3555;53.248;10.336;2023-08-24T15:23:22;28.30;1.00
7028;DHT22;3555;53.248;10.336;2023-08-24T15:25:49;28.30;1.00
7028;DHT22;3555;53.248;10.336;2023-08-24T15:28:16;28.40;1.00
7028;DHT22;3555;53.248;10.336;2023-08-24T15:30:43;28.40;1.00
7028;DHT22;3555;53.248;10.336;2023-08-24T15:33:10;28.20;1.00
7028;DHT22;3555;53.248;10.336;2023-08-24T15:35:39;28.10;1.00
7028;DHT22;3555;53.248;10.336;2023-08-24T15:38:08;28.10;1.00
7028;DHT22;3555;53.248;10.336;2023-08-24T15:40:36;27.60;1.00
7028;DHT22;3555;53.248;10.336;2023-08-24T15:43:04;27.60;1.00
7028;DHT22;3555;53.248;10.336;2023-08-24T15:45:32;27.50;1.00
7028;DHT22;3555;53.248;10.336;2023-08-24T15:48:00;27.50;1.00
7028;DHT22;3555;53.248;10.336;2023-08-24T15:50:27;27.40;1.00
7028;DHT22;3555;53.248;10.336;2023-08-24T15:52:54;27.50;1.00
7028;DHT22;3555;53.248;10.336;2023-08-24T15:55:27;27.30;1.00
7028;DHT22;3555;53.248;10.336;2023-08-24T15:57:54;27.40;1.00
7028;DHT22;3555;53.248;10.336;2023-08-24T16:00:21;27.30;1.00
7028;DHT22;3555;53.248;10.336;2023-08-24T16:02:48;27.20;1.00